Time;durP1;ratioP1;P1;durP2;ratioP2;P2;SDS_P1;SDS_P2;PMS_P1;PMS_P2;Temp;Humidity;BMP_temperature;BMP_pressure;BME280_temperature;BME280_humidity;BME280_pressure;Samples;Min_cycle;Max_cycle;Signal;HPM_P1;HPM_P2
2021/05/23 00:00:50;;;;;;;3.85;2.78;;;14.40;66.20;;;;;;4996283;28;20029;-83
2021/05/23 00:03:17;;;;;;;4.05;2.92;;;14.40;66.20;;;;;;5015882;28;20034;-84
2021/05/23 00:05:45;;;;;;;4.60;3.10;;;14.40;66.20;;;;;;5010243;28;20387;-84
2021/05/23 00:08:17;;;;;;;4.07;2.80;;;14.40;66.20;;;;;;5006341;28;20034;-84
2021/05/23 00:11:07;;;;;;;4.40;2.88;;;14.40;66.30;;;;;;5013261;28;20072;-84
2021/05/23 00:13:48;;;;;;;3.88;2.80;;;14.40;66.30;;;;;;5004688;28;20065;-84
2021/05/23 00:16:22;;;;;;;3.63;2.80;;;14.40;66.30;;;;;;5014140;28;20040;-84
2021/05/23 00:18:51;;;;;;;3.22;2.80;;;14.40;66.30;;;;;;5009889;28;20036;-84
2021/05/23 00:21:20;;;;;;;3.78;2.88;;;14.40;66.30;;;;;;4994907;28;20111;-84
2021/05/23 00:23:46;;;;;;;3.72;3.00;;;14.30;66.30;;;;;;5010873;28;20053;-84
2021/05/23 00:26:12;;;;;;;3.58;2.90;;;14.30;66.30;;;;;;5012772;28;20073;-84
2021/05/23 00:28:39;;;;;;;4.63;2.92;;;14.30;66.30;;;;;;5012450;28;20117;-84
2021/05/23 00:31:05;;;;;;;3.97;2.97;;;14.30;66.40;;;;;;5011683;28;20378;-84
2021/05/23 00:33:31;;;;;;;4.68;2.92;;;14.30;66.30;;;;;;4992778;28;20030;-84
2021/05/23 00:35:57;;;;;;;4.65;3.05;;;14.30;66.30;;;;;;5007848;28;20084;-84
2021/05/23 00:38:23;;;;;;;4.07;2.80;;;14.30;67.00;;;;;;5028763;28;20026;-84
2021/05/23 00:40:49;;;;;;;3.65;2.70;;;14.30;66.40;;;;;;5009231;28;20108;-85
2021/05/23 00:43:18;;;;;;;5.03;3.17;;;14.30;66.40;;;;;;4996209;28;20045;-84
2021/05/23 00:45:46;;;;;;;4.18;3.25;;;14.30;66.40;;;;;;4996221;28;20026;-84
2021/05/23 00:48:12;;;;;;;4.03;3.10;;;14.30;66.40;;;;;;4996048;28;20487;-84
2021/05/23 00:50:39;;;;;;;4.10;2.90;;;14.20;66.40;;;;;;4996247;28;20037;-84
2021/05/23 00:53:05;;;;;;;4.00;3.00;;;14.30;66.50;;;;;;4995477;28;20049;-84
2021/05/23 00:55:32;;;;;;;3.67;2.78;;;14.20;66.40;;;;;;5011737;28;20034;-84
2021/05/23 00:57:59;;;;;;;4.50;2.95;;;14.30;66.50;;;;;;4995720;28;20034;-84
2021/05/23 01:00:44;;;;;;;3.75;2.85;;;14.30;66.50;;;;;;5012202;28;20029;-84
2021/05/23 01:03:28;;;;;;;;;;;14.20;66.60;;;;;;5004859;28;20524;-84
2021/05/23 01:05:57;;;;;;;2.90;2.33;;;14.20;66.30;;;;;;4996423;28;19920;-84
2021/05/23 01:08:24;;;;;;;3.92;2.92;;;14.20;66.30;;;;;;4999278;28;20041;-84
2021/05/23 01:10:56;;;;;;;3.30;2.63;;;14.20;66.50;;;;;;5005343;28;20057;-84
2021/05/23 01:13:34;;;;;;;3.58;2.92;;;14.20;66.60;;;;;;5003074;28;20026;-84
2021/05/23 01:16:07;;;;;;;4.65;3.00;;;14.10;66.60;;;;;;5023868;28;20030;-84
2021/05/23 01:18:46;;;;;;;3.95;2.72;;;14.10;66.60;;;;;;4997999;28;20165;-84
2021/05/23 01:21:14;;;;;;;3.22;2.67;;;14.10;66.60;;;;;;5024583;28;20022;-84
2021/05/23 01:23:47;;;;;;;3.60;3.00;;;14.10;66.60;;;;;;5012585;28;20108;-84
2021/05/23 01:26:14;;;;;;;3.85;2.80;;;14.10;66.60;;;;;;5011977;28;20053;-84
2021/05/23 01:28:45;;;;;;;4.05;2.75;;;14.10;66.60;;;;;;5012382;28;20038;-84
2021/05/23 01:31:14;;;;;;;4.45;2.90;;;14.10;66.60;;;;;;5005116;28;20033;-84
2021/05/23 01:33:41;;;;;;;3.38;2.60;;;14.10;66.60;;;;;;5014580;28;20041;-84
2021/05/23 01:36:07;;;;;;;3.55;2.60;;;14.10;66.60;;;;;;5000085;28;20096;-85
2021/05/23 01:38:35;;;;;;;3.53;2.83;;;14.10;66.60;;;;;;5010061;28;20115;-84
2021/05/23 01:41:07;;;;;;;3.08;2.50;;;14.10;66.70;;;;;;4999614;28;20421;-85
2021/05/23 01:43:34;;;;;;;3.88;2.85;;;14.10;66.70;;;;;;5016333;28;20061;-84
2021/05/23 01:46:00;;;;;;;3.65;2.78;;;14.10;66.70;;;;;;4999178;28;20026;-84
2021/05/23 01:48:27;;;;;;;4.57;2.90;;;14.10;66.70;;;;;;4999922;28;20117;-83
2021/05/23 01:50:53;;;;;;;3.65;2.80;;;14.10;66.70;;;;;;5016383;28;20117;-84
2021/05/23 01:53:19;;;;;;;3.47;2.35;;;14.10;66.70;;;;;;5015632;28;20402;-84
2021/05/23 01:55:45;;;;;;;3.47;2.50;;;14.10;66.70;;;;;;4999838;28;20064;-84
2021/05/23 01:58:11;;;;;;;3.75;2.92;;;14.10;66.80;;;;;;5001673;28;20410;-85
2021/05/23 02:00:45;;;;;;;3.42;2.55;;;14.00;66.70;;;;;;5015761;28;20042;-84
2021/05/23 02:03:13;;;;;;;3.75;2.80;;;14.00;66.80;;;;;;5005488;28;20033;-85
2021/05/23 02:05:43;;;;;;;3.80;2.70;;;14.00;66.70;;;;;;4999090;28;20046;-83
2021/05/23 02:08:11;;;;;;;3.50;2.55;;;14.00;66.80;;;;;;5015925;28;20108;-84
2021/05/23 02:10:37;;;;;;;3.70;2.33;;;14.00;66.80;;;;;;4999844;28;20450;-84
2021/05/23 02:13:04;;;;;;;2.92;2.40;;;14.00;66.80;;;;;;5022665;28;20066;-84
2021/05/23 02:15:31;;;;;;;3.33;2.42;;;14.00;66.80;;;;;;4999216;28;20544;-84
2021/05/23 02:17:57;;;;;;;3.40;2.55;;;14.00;66.80;;;;;;5027581;28;20065;-84
2021/05/23 02:20:30;;;;;;;3.45;2.58;;;14.00;66.80;;;;;;5015297;28;20030;-84
2021/05/23 02:22:58;;;;;;;3.30;2.15;;;13.90;66.80;;;;;;5013922;28;20026;-84
2021/05/23 02:25:26;;;;;;;4.22;2.80;;;13.90;66.80;;;;;;5009153;28;20025;-83
2021/05/23 02:27:54;;;;;;;3.80;2.53;;;13.90;66.80;;;;;;5015040;28;20033;-84
2021/05/23 02:30:24;;;;;;;3.47;2.78;;;13.90;66.80;;;;;;4998517;28;20022;-83
2021/05/23 02:32:50;;;;;;;3.47;2.70;;;13.90;66.80;;;;;;5016767;28;20046;-83
2021/05/23 02:35:19;;;;;;;3.47;2.80;;;13.90;66.70;;;;;;4998552;28;20018;-83
2021/05/23 02:37:45;;;;;;;3.70;2.95;;;13.90;66.80;;;;;;4998990;28;20030;-84
2021/05/23 02:40:14;;;;;;;3.60;2.80;;;13.90;66.80;;;;;;5014937;28;20054;-84
2021/05/23 02:42:41;;;;;;;3.40;2.85;;;13.90;66.80;;;;;;5015460;28;20029;-83
2021/05/23 02:45:11;;;;;;;3.47;2.47;;;13.90;66.80;;;;;;5030271;28;20037;-84
2021/05/23 02:47:39;;;;;;;3.63;2.67;;;13.80;66.80;;;;;;5015311;28;20056;-83
2021/05/23 02:50:08;;;;;;;3.65;2.72;;;13.80;66.80;;;;;;5014985;28;20080;-84
2021/05/23 02:52:34;;;;;;;4.88;3.05;;;13.80;66.80;;;;;;4998578;28;20084;-84
2021/05/23 02:55:00;;;;;;;3.92;2.83;;;13.80;66.80;;;;;;5015216;28;20128;-83
2021/05/23 02:57:26;;;;;;;3.67;2.67;;;13.80;66.80;;;;;;4982154;28;20152;-83
2021/05/23 02:59:51;;;;;;;4.53;2.95;;;13.80;66.90;;;;;;5015180;28;20042;-84
2021/05/23 03:02:17;;;;;;;4.30;3.00;;;13.80;66.90;;;;;;4998455;28;20034;-84
2021/05/23 03:04:43;;;;;;;5.05;3.35;;;13.80;66.90;;;;;;5008675;28;20034;-83
2021/05/23 03:07:09;;;;;;;4.43;3.00;;;13.80;66.90;;;;;;4975903;28;20490;-84
2021/05/23 03:09:35;;;;;;;4.32;3.33;;;13.70;66.80;;;;;;5011343;28;20034;-84
2021/05/23 03:12:00;;;;;;;3.13;2.60;;;13.80;66.90;;;;;;4982115;28;20439;-84
2021/05/23 03:14:26;;;;;;;4.97;3.33;;;13.80;66.90;;;;;;5011032;28;20475;-84
2021/05/23 03:16:52;;;;;;;3.97;3.03;;;13.70;66.90;;;;;;4986981;28;20064;-84
2021/05/23 03:19:18;;;;;;;4.43;3.13;;;13.80;67.00;;;;;;5026588;28;20026;-84
2021/05/23 03:21:44;;;;;;;5.00;3.40;;;13.70;66.90;;;;;;5014169;28;20026;-84
2021/05/23 03:24:10;;;;;;;4.72;3.45;;;13.80;67.00;;;;;;5014543;28;20056;-84
2021/05/23 03:26:36;;;;;;;3.72;3.00;;;13.70;66.90;;;;;;5030497;28;20037;-84
2021/05/23 03:29:02;;;;;;;4.15;3.10;;;13.70;67.00;;;;;;5014111;28;20034;-84
2021/05/23 03:31:28;;;;;;;3.85;3.13;;;13.70;66.90;;;;;;4995239;28;20037;-84
2021/05/23 03:33:54;;;;;;;4.30;3.25;;;13.70;66.90;;;;;;4995304;28;20026;-84
2021/05/23 03:36:20;;;;;;;4.47;3.25;;;13.70;67.00;;;;;;4996891;28;20034;-84
2021/05/23 03:38:47;;;;;;;4.30;3.15;;;13.70;67.00;;;;;;5014148;28;20084;-84
2021/05/23 03:41:14;;;;;;;4.50;3.10;;;13.60;67.00;;;;;;5014042;28;20081;-84
2021/05/23 03:43:40;;;;;;;4.82;3.33;;;13.60;66.90;;;;;;5030440;28;20058;-84
2021/05/23 03:46:06;;;;;;;5.80;3.80;;;13.60;67.00;;;;;;5006511;28;20125;-85
2021/05/23 03:48:33;;;;;;;4.18;3.20;;;13.60;67.00;;;;;;5000362;28;20076;-84
2021/05/23 03:50:58;;;;;;;4.57;3.50;;;13.60;67.00;;;;;;4995882;28;20026;-84
2021/05/23 03:53:24;;;;;;;4.82;3.90;;;13.60;67.00;;;;;;4996602;28;20068;-85
2021/05/23 03:55:50;;;;;;;4.60;3.45;;;13.60;67.00;;;;;;5005923;28;20034;-85
2021/05/23 03:58:17;;;;;;;4.80;3.80;;;13.60;67.00;;;;;;4990896;28;20435;-85
2021/05/23 04:00:43;;;;;;;4.65;3.22;;;13.60;67.00;;;;;;4997308;28;20026;-84
2021/05/23 04:03:10;;;;;;;4.80;3.25;;;13.60;67.00;;;;;;4997440;28;20037;-85
2021/05/23 04:05:36;;;;;;;4.70;3.45;;;13.60;67.10;;;;;;5013509;28;20520;-85
2021/05/23 04:08:02;;;;;;;4.78;3.58;;;13.60;67.10;;;;;;5014097;28;20151;-85
2021/05/23 04:10:33;;;;;;;4.80;3.80;;;13.60;67.10;;;;;;5013614;28;20034;-84
2021/05/23 04:13:02;;;;;;;5.18;3.72;;;13.60;67.10;;;;;;4997325;28;20049;-85
2021/05/23 04:15:27;;;;;;;4.80;3.80;;;13.50;67.10;;;;;;5013850;28;20241;-84
2021/05/23 04:17:53;;;;;;;5.10;3.53;;;13.50;67.10;;;;;;5011642;28;20112;-84
2021/05/23 04:20:21;;;;;;;4.75;3.80;;;13.60;67.20;;;;;;4997262;28;20029;-84
2021/05/23 04:22:49;;;;;;;4.50;3.40;;;13.50;67.20;;;;;;5013745;28;20030;-84
2021/05/23 04:25:16;;;;;;;4.95;3.78;;;13.50;67.20;;;;;;5009589;28;20045;-85
2021/05/23 04:27:45;;;;;;;5.60;3.72;;;13.50;67.20;;;;;;5011177;28;20069;-84
2021/05/23 04:30:12;;;;;;;5.25;4.10;;;13.50;67.20;;;;;;4997205;28;20025;-84
2021/05/23 04:32:39;;;;;;;4.95;3.67;;;13.50;67.20;;;;;;5012416;28;20036;-84
2021/05/23 04:35:07;;;;;;;4.40;3.67;;;13.50;67.20;;;;;;5000980;28;20034;-84
2021/05/23 04:37:33;;;;;;;5.25;3.85;;;13.50;67.20;;;;;;5012908;28;20093;-84
2021/05/23 04:39:59;;;;;;;5.35;3.83;;;13.50;67.20;;;;;;5013273;28;20029;-84
2021/05/23 04:42:25;;;;;;;5.43;4.13;;;13.50;67.20;;;;;;5012815;28;20385;-85
2021/05/23 04:44:51;;;;;;;5.82;4.53;;;13.50;67.20;;;;;;5013371;28;20134;-85
2021/05/23 04:47:17;;;;;;;5.35;3.88;;;13.50;67.30;;;;;;4996959;28;20034;-84
2021/05/23 04:49:43;;;;;;;5.97;4.43;;;13.50;67.30;;;;;;4997116;28;20060;-85
2021/05/23 04:52:11;;;;;;;5.32;3.95;;;13.50;67.20;;;;;;5013299;28;20030;-85
2021/05/23 04:54:38;;;;;;;6.00;4.35;;;13.50;67.30;;;;;;5013622;28;20029;-85
2021/05/23 04:57:05;;;;;;;5.57;4.55;;;13.50;67.30;;;;;;5009549;28;20100;-84
2021/05/23 04:59:31;;;;;;;6.43;4.40;;;13.50;67.30;;;;;;4996972;28;20034;-85
2021/05/23 05:01:57;;;;;;;6.05;4.78;;;13.50;67.30;;;;;;4996854;28;20029;-84
2021/05/23 05:04:23;;;;;;;6.15;4.53;;;13.50;67.30;;;;;;5011942;28;20034;-85
2021/05/23 05:06:49;;;;;;;6.05;5.07;;;13.50;67.30;;;;;;4996679;28;20034;-84
2021/05/23 05:09:15;;;;;;;6.18;5.00;;;13.50;67.30;;;;;;4996015;28;20042;-84
2021/05/23 05:11:41;;;;;;;6.28;5.18;;;13.50;67.30;;;;;;4993074;28;20035;-84
2021/05/23 05:14:08;;;;;;;6.32;5.10;;;13.50;67.30;;;;;;4994846;28;20026;-85
2021/05/23 05:16:34;;;;;;;6.50;5.05;;;13.50;67.30;;;;;;5009522;28;20371;-84
2021/05/23 05:19:00;;;;;;;6.70;4.93;;;13.60;67.40;;;;;;5009686;28;20084;-84
2021/05/23 05:21:26;;;;;;;6.88;5.32;;;13.60;67.40;;;;;;5010183;28;20467;-86
2021/05/23 05:23:51;;;;;;;6.97;5.43;;;13.60;67.30;;;;;;5011243;28;20538;-85
2021/05/23 05:26:17;;;;;;;6.60;5.18;;;13.60;67.40;;;;;;5017259;28;20061;-85
2021/05/23 05:28:43;;;;;;;8.02;5.70;;;13.50;67.30;;;;;;4977641;28;20546;-85
2021/05/23 05:31:10;;;;;;;6.72;5.25;;;13.60;67.30;;;;;;4979681;28;20034;-85
2021/05/23 05:33:36;;;;;;;6.97;5.53;;;13.60;67.30;;;;;;5009812;28;20081;-85
2021/05/23 05:36:01;;;;;;;7.03;5.53;;;13.60;67.30;;;;;;5008358;28;20030;-85
2021/05/23 05:38:27;;;;;;;7.70;5.82;;;13.60;67.30;;;;;;5020419;28;20030;-84
2021/05/23 05:40:53;;;;;;;7.32;5.93;;;13.60;67.30;;;;;;5000710;28;20050;-85
2021/05/23 05:43:19;;;;;;;8.13;5.82;;;13.60;67.30;;;;;;5012512;28;20044;-85
2021/05/23 05:45:45;;;;;;;7.78;5.82;;;13.60;67.30;;;;;;4987275;28;20044;-85
2021/05/23 05:48:11;;;;;;;8.32;6.40;;;13.60;67.30;;;;;;5010018;28;20033;-86
2021/05/23 05:50:36;;;;;;;7.05;5.78;;;13.60;67.40;;;;;;5012346;28;20038;-85
2021/05/23 05:53:02;;;;;;;8.48;6.70;;;13.60;67.40;;;;;;5009097;28;20469;-85
2021/05/23 05:55:28;;;;;;;8.52;6.63;;;13.70;67.50;;;;;;4990926;28;20038;-84
2021/05/23 05:57:54;;;;;;;8.05;6.68;;;13.60;67.40;;;;;;4988644;28;20037;-84
2021/05/23 06:00:20;;;;;;;7.63;6.20;;;13.70;67.50;;;;;;5012094;28;20053;-85
2021/05/23 06:02:46;;;;;;;7.50;5.85;;;13.70;67.50;;;;;;5004567;28;20054;-85
2021/05/23 06:05:12;;;;;;;7.35;5.57;;;13.70;67.50;;;;;;4975483;28;20034;-85
2021/05/23 06:07:37;;;;;;;9.32;6.78;;;13.70;67.50;;;;;;5008991;28;20157;-86
2021/05/23 06:10:04;;;;;;;8.57;6.65;;;13.70;67.50;;;;;;4996271;28;20037;-85
2021/05/23 06:12:30;;;;;;;7.22;5.90;;;13.70;67.50;;;;;;4995975;28;20033;-84
2021/05/23 06:14:56;;;;;;;8.18;6.70;;;13.70;67.50;;;;;;5012310;28;20022;-85
2021/05/23 06:17:21;;;;;;;8.15;6.70;;;13.70;67.50;;;;;;5028752;28;20379;-84
2021/05/23 06:19:47;;;;;;;8.45;6.82;;;13.80;67.50;;;;;;4981793;28;20139;-85
2021/05/23 06:22:14;;;;;;;7.85;6.57;;;13.80;67.60;;;;;;5015600;28;20034;-85
2021/05/23 06:24:40;;;;;;;8.43;7.38;;;13.80;67.60;;;;;;5015696;28;20029;-86
2021/05/23 06:27:06;;;;;;;9.43;7.90;;;13.80;67.60;;;;;;4999585;28;20125;-86
2021/05/23 06:29:32;;;;;;;8.43;7.13;;;13.80;67.60;;;;;;5031534;28;20034;-85
2021/05/23 06:31:58;;;;;;;8.23;6.72;;;13.80;67.50;;;;;;5015295;28;20026;-85
2021/05/23 06:34:25;;;;;;;8.95;7.30;;;13.80;67.60;;;;;;4983174;28;20445;-85
2021/05/23 06:36:51;;;;;;;8.38;7.00;;;13.80;67.60;;;;;;4989957;28;20062;-85
2021/05/23 06:39:17;;;;;;;7.55;6.63;;;13.80;67.60;;;;;;5016085;28;20108;-85
2021/05/23 06:41:43;;;;;;;8.40;7.10;;;13.80;67.60;;;;;;5014869;28;20049;-84
2021/05/23 06:44:08;;;;;;;7.72;6.90;;;13.80;67.60;;;;;;5015195;28;20041;-85
2021/05/23 06:46:34;;;;;;;7.38;6.35;;;13.90;67.60;;;;;;4983274;28;20034;-85
2021/05/23 06:49:00;;;;;;;8.80;6.80;;;13.90;67.60;;;;;;5015350;28;20037;-85
2021/05/23 06:51:26;;;;;;;8.57;6.75;;;13.90;68.00;;;;;;5015100;28;20032;-84
2021/05/23 06:53:52;;;;;;;7.93;6.38;;;13.90;67.70;;;;;;5011729;28;20053;-84
2021/05/23 06:56:17;;;;;;;7.75;6.25;;;13.90;67.70;;;;;;4964206;28;20030;-84
2021/05/23 06:58:43;;;;;;;7.35;5.93;;;13.90;67.70;;;;;;4999022;28;20482;-86
2021/05/23 07:01:09;;;;;;;6.60;5.63;;;13.90;67.70;;;;;;4997838;28;20033;-85
2021/05/23 07:03:36;;;;;;;7.53;6.72;;;13.90;67.70;;;;;;4998230;28;20034;-83
2021/05/23 07:06:03;;;;;;;6.97;5.97;;;13.90;67.60;;;;;;4998168;28;20172;-85
2021/05/23 07:08:28;;;;;;;7.55;5.80;;;13.90;67.60;;;;;;4979840;28;20030;-84
2021/05/23 07:10:54;;;;;;;7.13;5.68;;;14.00;67.70;;;;;;5002745;28;20033;-84
2021/05/23 07:13:22;;;;;;;6.55;5.40;;;14.00;67.70;;;;;;5007671;28;20089;-85
2021/05/23 07:15:49;;;;;;;6.50;5.13;;;14.00;67.70;;;;;;5010162;28;20038;-83
2021/05/23 07:18:15;;;;;;;5.97;5.15;;;14.00;67.70;;;;;;4988413;28;20038;-84
2021/05/23 07:20:41;;;;;;;6.65;5.38;;;13.90;67.60;;;;;;4998345;28;20484;-85
2021/05/23 07:23:07;;;;;;;6.82;5.22;;;14.00;67.70;;;;;;5015356;28;20022;-83
2021/05/23 07:25:33;;;;;;;7.40;5.18;;;14.00;67.70;;;;;;5013863;28;20037;-84
2021/05/23 07:27:59;;;;;;;6.63;5.15;;;14.00;67.70;;;;;;4997122;28;20124;-86
2021/05/23 07:30:25;;;;;;;6.95;4.72;;;14.00;67.70;;;;;;4996716;28;20049;-87
2021/05/23 07:32:51;;;;;;;5.80;4.65;;;14.00;67.70;;;;;;4997849;28;20478;-90
2021/05/23 07:35:17;;;;;;;5.75;4.68;;;14.00;67.70;;;;;;5013143;28;20462;-87
2021/05/23 07:37:43;;;;;;;6.25;4.47;;;14.00;67.70;;;;;;5014090;28;20033;-90
2021/05/23 07:40:10;;;;;;;5.82;4.50;;;14.00;67.70;;;;;;4997899;28;20050;-90
2021/05/23 07:42:36;;;;;;;6.82;5.03;;;14.00;67.70;;;;;;4998262;28;20137;-89
2021/05/23 07:45:03;;;;;;;5.07;4.03;;;14.00;67.70;;;;;;4998648;28;20113;-88
2021/05/23 07:47:29;;;;;;;5.75;4.43;;;14.00;67.70;;;;;;5009708;28;20034;-86
2021/05/23 07:49:55;;;;;;;5.35;4.07;;;14.00;67.60;;;;;;5005603;28;20202;-86
2021/05/23 07:52:21;;;;;;;6.07;4.60;;;14.00;67.60;;;;;;5029633;28;20037;-86
2021/05/23 07:54:47;;;;;;;4.60;3.75;;;14.00;67.60;;;;;;4993575;28;20014;-83
2021/05/23 07:57:14;;;;;;;5.47;4.10;;;14.10;67.70;;;;;;4997089;28;20069;-84
2021/05/23 07:59:39;;;;;;;5.50;4.10;;;14.00;67.60;;;;;;5014037;28;20032;-85
2021/05/23 08:02:31;;;;;;;4.47;3.75;;;14.10;67.60;;;;;;5012154;28;20414;-85
2021/05/23 08:04:57;;;;;;;5.57;3.80;;;14.10;67.70;;;;;;5012695;28;20037;-83
2021/05/23 08:07:23;;;;;;;5.80;3.58;;;14.10;67.60;;;;;;5002951;28;20030;-85
2021/05/23 08:09:49;;;;;;;4.85;3.45;;;14.10;67.60;;;;;;5012534;28;20442;-84
2021/05/23 08:12:15;;;;;;;5.15;3.53;;;14.10;67.60;;;;;;5002895;28;20037;-82
2021/05/23 08:14:41;;;;;;;5.10;3.53;;;14.10;67.60;;;;;;5002267;28;20034;-82
2021/05/23 08:17:07;;;;;;;4.88;3.33;;;14.10;67.60;;;;;;5012605;28;20033;-80
2021/05/23 08:19:33;;;;;;;4.50;3.38;;;14.10;67.60;;;;;;5007935;28;20053;-84
2021/05/23 08:21:59;;;;;;;4.88;3.35;;;14.10;67.60;;;;;;5012464;28;20065;-85
2021/05/23 08:24:25;;;;;;;5.22;3.40;;;14.10;67.60;;;;;;4986820;28;20092;-85
2021/05/23 08:26:51;;;;;;;4.35;3.30;;;14.10;67.60;;;;;;4997419;28;20116;-85
2021/05/23 08:29:17;;;;;;;4.88;3.28;;;14.20;67.70;;;;;;5013159;28;20044;-85
2021/05/23 08:31:43;;;;;;;4.05;3.00;;;14.20;67.70;;;;;;4995837;28;20037;-87
2021/05/23 08:34:09;;;;;;;4.07;3.28;;;14.20;67.60;;;;;;4996336;28;20022;-86
2021/05/23 08:36:35;;;;;;;3.40;2.92;;;14.20;67.60;;;;;;4994894;28;20026;-85
2021/05/23 08:39:00;;;;;;;4.07;3.15;;;14.20;67.70;;;;;;5009947;28;20034;-82
2021/05/23 08:41:26;;;;;;;4.07;3.10;;;14.20;67.70;;;;;;4993189;28;20489;-85
2021/05/23 08:43:53;;;;;;;4.15;3.10;;;14.20;67.70;;;;;;4990884;28;20425;-84
2021/05/23 08:46:20;;;;;;;4.78;3.20;;;14.30;67.70;;;;;;5001080;28;20517;-82
2021/05/23 08:48:47;;;;;;;4.57;3.42;;;14.20;67.60;;;;;;5007399;28;20034;-83
2021/05/23 08:51:13;;;;;;;4.35;2.92;;;14.20;67.60;;;;;;5008793;28;20117;-84
2021/05/23 08:53:38;;;;;;;4.63;3.20;;;14.30;67.60;;;;;;5006035;28;20458;-85
2021/05/23 08:56:04;;;;;;;4.70;3.00;;;14.30;67.70;;;;;;4992625;28;20035;-82
2021/05/23 08:58:30;;;;;;;3.28;2.70;;;14.30;67.70;;;;;;4993232;28;20039;-80
2021/05/23 09:00:56;;;;;;;3.97;2.90;;;14.30;67.60;;;;;;4988746;28;20528;-80
2021/05/23 09:03:22;;;;;;;3.35;2.67;;;14.40;67.70;;;;;;5009038;28;20027;-80
2021/05/23 09:05:58;;;;;;;3.97;2.80;;;14.40;67.60;;;;;;4995526;28;20037;-82
2021/05/23 09:08:27;;;;;;;4.05;2.60;;;14.40;67.70;;;;;;5011679;28;20029;-82
2021/05/23 09:10:58;;;;;;;3.47;2.70;;;14.40;67.60;;;;;;5013681;28;20425;-82
2021/05/23 09:13:30;;;;;;;4.30;3.28;;;14.50;67.70;;;;;;5012114;28;20033;-82
2021/05/23 09:15:58;;;;;;;3.15;2.63;;;14.50;68.30;;;;;;5011653;28;20065;-81
2021/05/23 09:18:24;;;;;;;3.65;2.60;;;14.50;67.50;;;;;;5012638;28;20049;-82
2021/05/23 09:21:00;;;;;;;5.22;3.00;;;14.50;67.50;;;;;;5028540;28;20068;-81
2021/05/23 09:23:26;;;;;;;3.28;2.33;;;14.50;67.60;;;;;;4991887;28;20399;-83
2021/05/23 09:25:52;;;;;;;4.78;2.80;;;14.60;67.50;;;;;;5017238;28;20034;-86
2021/05/23 09:28:29;;;;;;;3.80;2.33;;;14.60;67.40;;;;;;5011347;28;20029;-81
2021/05/23 09:30:55;;;;;;;3.83;2.20;;;14.60;67.40;;;;;;5011600;28;20079;-82
2021/05/23 09:33:21;;;;;;;2.88;2.22;;;14.70;67.30;;;;;;5011955;28;20454;-82
2021/05/23 09:35:47;;;;;;;2.88;2.38;;;14.70;67.30;;;;;;5011620;28;20030;-80
2021/05/23 09:38:15;;;;;;;2.40;2.20;;;14.70;67.20;;;;;;5011540;28;20168;-81
2021/05/23 09:40:45;;;;;;;3.15;2.00;;;14.70;67.20;;;;;;5012493;28;20046;-81
2021/05/23 09:43:21;;;;;;;2.40;2.13;;;14.80;67.20;;;;;;5011169;28;20033;-81
2021/05/23 09:45:50;;;;;;;2.60;1.85;;;14.80;67.20;;;;;;5011487;28;20030;-81
2021/05/23 09:48:27;;;;;;;2.97;2.00;;;14.80;67.00;;;;;;5010659;28;20033;-80
2021/05/23 09:50:55;;;;;;;2.33;1.80;;;14.90;67.10;;;;;;4992807;28;20057;-82
2021/05/23 09:53:27;;;;;;;3.10;1.90;;;14.90;66.80;;;;;;4995684;28;20025;-80
2021/05/23 09:56:05;;;;;;;2.22;1.63;;;15.00;66.80;;;;;;5011565;28;20368;-83
2021/05/23 09:58:42;;;;;;;2.60;1.50;;;15.00;66.70;;;;;;4998998;28;20057;-82
2021/05/23 10:01:10;;;;;;;2.42;1.70;;;15.10;66.60;;;;;;5011748;28;20038;-83
2021/05/23 10:03:39;;;;;;;2.13;1.50;;;15.10;66.50;;;;;;5015015;28;20025;-85
2021/05/23 10:06:07;;;;;;;2.20;1.60;;;15.20;66.40;;;;;;4998288;28;20030;-82
2021/05/23 10:08:33;;;;;;;2.17;1.50;;;15.20;66.30;;;;;;4985379;28;20438;-83
2021/05/23 10:10:59;;;;;;;2.42;1.52;;;15.30;66.20;;;;;;5005923;28;20038;-81
2021/05/23 10:13:27;;;;;;;1.65;1.42;;;15.40;66.10;;;;;;4981120;28;20026;-80
2021/05/23 10:15:53;;;;;;;1.58;1.27;;;15.50;66.00;;;;;;5010974;28;20045;-81
2021/05/23 10:18:27;;;;;;;3.92;1.70;;;15.50;65.90;;;;;;5009579;28;20451;-82
2021/05/23 10:20:56;;;;;;;1.40;1.30;;;15.60;65.80;;;;;;4995090;28;20050;-82
2021/05/23 10:23:26;;;;;;;1.42;1.33;;;15.70;65.70;;;;;;5014798;28;20049;-83
2021/05/23 10:25:54;;;;;;;1.83;1.20;;;15.70;65.60;;;;;;5014789;28;20072;-83
2021/05/23 10:28:22;;;;;;;1.50;1.40;;;15.80;65.50;;;;;;5014423;28;20447;-82
2021/05/23 10:30:53;;;;;;;1.52;1.42;;;15.90;65.30;;;;;;4999332;28;20477;-83
2021/05/23 10:33:20;;;;;;;1.98;1.52;;;15.90;65.20;;;;;;4982638;28;20599;-85
2021/05/23 10:35:49;;;;;;;2.10;1.33;;;16.00;65.20;;;;;;5012139;28;20448;-83
2021/05/23 10:38:19;;;;;;;1.67;1.30;;;16.00;65.10;;;;;;5015064;28;20034;-83
2021/05/23 10:40:54;;;;;;;1.13;1.02;;;16.10;65.10;;;;;;5015810;28;20108;-83
2021/05/23 10:43:34;;;;;;;1.38;1.27;;;16.10;65.00;;;;;;4998614;28;20030;-81
2021/05/23 10:46:08;;;;;;;2.13;1.40;;;16.20;65.00;;;;;;5015726;28;20041;-82
2021/05/23 10:48:34;;;;;;;2.50;1.40;;;16.30;64.90;;;;;;5007224;28;20113;-81
2021/05/23 10:51:14;;;;;;;2.17;1.42;;;16.30;64.80;;;;;;4991801;28;20383;-83
2021/05/23 10:53:40;;;;;;;3.00;1.40;;;16.30;64.90;;;;;;4970408;28;20359;-82
2021/05/23 10:56:06;;;;;;;1.45;1.35;;;16.40;64.80;;;;;;4994014;28;20046;-83
2021/05/23 10:58:31;;;;;;;1.92;1.30;;;16.40;64.80;;;;;;5008784;28;20038;-82
2021/05/23 11:00:58;;;;;;;3.10;1.85;;;16.40;64.70;;;;;;5006342;28;20022;-83
2021/05/23 11:03:26;;;;;;;2.33;1.63;;;16.40;64.70;;;;;;5010308;28;20022;-86
2021/05/23 11:06:04;;;;;;;1.73;1.50;;;16.50;64.70;;;;;;5000314;28;20026;-84
2021/05/23 11:08:35;;;;;;;3.63;1.73;;;16.50;64.70;;;;;;5001510;28;20030;-82
2021/05/23 11:11:01;;;;;;;2.35;1.48;;;16.60;64.60;;;;;;5004710;28;20034;-83
2021/05/23 11:13:26;;;;;;;1.98;1.73;;;16.60;64.60;;;;;;5011703;28;20466;-82
2021/05/23 11:15:53;;;;;;;2.60;1.33;;;16.60;64.50;;;;;;4997665;28;20040;-82
2021/05/23 11:18:25;;;;;;;1.90;1.48;;;16.70;64.50;;;;;;5007192;28;20029;-83
2021/05/23 11:21:12;;;;;;;2.55;1.55;;;16.70;64.50;;;;;;5001645;28;20070;-84
2021/05/23 11:23:52;;;;;;;2.13;1.45;;;16.80;64.60;;;;;;4998447;28;20505;-82
2021/05/23 11:26:19;;;;;;;2.30;1.50;;;16.70;64.40;;;;;;5013162;28;20039;-84
2021/05/23 11:28:51;;;;;;;1.92;1.50;;;16.80;65.00;;;;;;4999644;28;20439;-81
2021/05/23 11:31:32;;;;;;;2.40;1.38;;;16.80;64.30;;;;;;5012994;28;20028;-81
2021/05/23 11:33:59;;;;;;;1.40;1.27;;;16.90;64.30;;;;;;4997545;28;20057;-83
2021/05/23 11:36:27;;;;;;;3.65;1.73;;;16.90;64.10;;;;;;4995122;28;20038;-82
2021/05/23 11:38:58;;;;;;;1.48;1.30;;;16.90;64.10;;;;;;5030060;28;20026;-83
2021/05/23 11:41:32;;;;;;;2.50;1.50;;;16.90;64.00;;;;;;4993014;28;20058;-83
2021/05/23 11:43:59;;;;;;;2.30;1.48;;;17.00;63.90;;;;;;5005470;28;20140;-82
2021/05/23 11:46:26;;;;;;;2.30;1.42;;;17.10;63.90;;;;;;5028799;28;20038;-83
2021/05/23 11:48:53;;;;;;;1.30;1.20;;;17.10;63.80;;;;;;5010044;28;20497;-82
2021/05/23 11:51:33;;;;;;;2.45;1.60;;;17.20;63.80;;;;;;5006446;28;20022;-83
2021/05/23 11:54:01;;;;;;;1.45;1.35;;;17.20;63.80;;;;;;4986242;28;20026;-82
2021/05/23 11:56:32;;;;;;;1.83;1.33;;;17.20;63.60;;;;;;4994616;28;20049;-82
2021/05/23 11:59:00;;;;;;;1.77;1.50;;;17.30;63.60;;;;;;4999059;28;20030;-86
2021/05/23 12:01:31;;;;;;;1.40;1.30;;;17.30;63.50;;;;;;5009577;28;20475;-85
2021/05/23 12:04:09;;;;;;;1.40;1.23;;;17.40;63.50;;;;;;4994956;28;20494;-83
2021/05/23 12:06:40;;;;;;;1.88;1.50;;;17.40;63.40;;;;;;5018070;28;20491;-82
2021/05/23 12:09:20;;;;;;;1.70;1.40;;;17.50;63.40;;;;;;4995260;28;20033;-83
2021/05/23 12:12:08;;;;;;;1.58;1.48;;;17.50;63.30;;;;;;5001026;28;20037;-83
2021/05/23 12:14:37;;;;;;;2.38;1.45;;;17.60;63.20;;;;;;5007476;28;20122;-83
2021/05/23 12:17:06;;;;;;;1.23;1.10;;;17.60;63.20;;;;;;5004425;28;20057;-81
2021/05/23 12:19:45;;;;;;;1.55;1.20;;;17.70;63.10;;;;;;4998832;28;20095;-82
2021/05/23 12:22:13;;;;;;;2.03;1.58;;;17.70;63.00;;;;;;5010009;28;20174;-83
2021/05/23 12:24:40;;;;;;;1.65;1.10;;;17.70;62.90;;;;;;5012654;28;20026;-82
2021/05/23 12:27:06;;;;;;;1.63;1.30;;;17.80;62.90;;;;;;5008859;28;20113;-85
2021/05/23 12:29:31;;;;;;;2.33;1.48;;;17.80;62.80;;;;;;5011267;28;20061;-80
2021/05/23 12:32:02;;;;;;;1.30;1.20;;;17.80;62.70;;;;;;5026954;28;20089;-82
2021/05/23 12:34:28;;;;;;;1.20;1.10;;;17.90;62.70;;;;;;4996837;28;20368;-82
2021/05/23 12:36:59;;;;;;;1.40;1.30;;;17.90;62.60;;;;;;5012136;28;20030;-82
2021/05/23 12:39:26;;;;;;;1.70;1.38;;;17.90;62.70;;;;;;5009124;28;20030;-81
2021/05/23 12:41:53;;;;;;;2.05;1.30;;;18.00;62.60;;;;;;5009313;28;20476;-81
2021/05/23 12:44:25;;;;;;;1.52;1.35;;;18.00;62.50;;;;;;5011615;28;20042;-81
2021/05/23 12:46:52;;;;;;;1.55;1.10;;;18.00;62.40;;;;;;5010857;28;20037;-80
2021/05/23 12:49:24;;;;;;;1.92;1.30;;;18.00;62.30;;;;;;5010317;28;20487;-82
2021/05/23 12:51:52;;;;;;;1.52;1.42;;;18.10;62.30;;;;;;4995833;28;20109;-83